DAL76 KDEN-KOKC
Flight info
| Callsign | DAL76 |
|---|---|
| Flight time | N/A |
| Altitude | 37000 |
| Route | EPKEE7 DUUZE ROLLS CAMET3 |
| Aircraft | A321/M-SDE3FGHIRWY/LB1 |
Departure
| Time | N/A |
|---|---|
| Airport | Denver International Airport (KDEN) |
Arrival
| Time | 2026-04-27 23:55 |
|---|---|
| Airport | OKC Will Rogers World Airport (KOKC) |
| Time | Latitude | Longitude | Altitude | Speed | Heading |
|---|---|---|---|---|---|
| 2026-04-27 23:05 | 38.92664 | -101.88816 | 36918 ft | 517 kts | 125° |
| 2026-04-27 23:05 | 38.89319 | -101.80608 | 36911 ft | 519 kts | 125° |
| 2026-04-27 23:06 | 38.85596 | -101.72797 | 36910 ft | 504 kts | 139° |
| 2026-04-27 23:06 | 38.83262 | -101.69583 | 36910 ft | 493 kts | 147° |
| 2026-04-27 23:06 | 38.80633 | -101.66852 | 36902 ft | 481 kts | 156° |
| 2026-04-27 23:07 | 38.74977 | -101.62513 | 36893 ft | 474 kts | 161° |
| 2026-04-27 23:07 | 38.69206 | -101.58241 | 36910 ft | 484 kts | 161° |
| 2026-04-27 23:08 | 38.63354 | -101.53882 | 36907 ft | 487 kts | 160° |
| 2026-04-27 23:08 | 38.57496 | -101.49503 | 36909 ft | 487 kts | 160° |
| 2026-04-27 23:09 | 38.51645 | -101.45153 | 36908 ft | 486 kts | 161° |
| 2026-04-27 23:09 | 38.45838 | -101.40864 | 36901 ft | 486 kts | 161° |
| 2026-04-27 23:10 | 38.39981 | -101.36555 | 36904 ft | 486 kts | 161° |
| 2026-04-27 23:10 | 38.34119 | -101.32248 | 36861 ft | 487 kts | 161° |
| 2026-04-27 23:11 | 38.29246 | -101.28660 | 36893 ft | 487 kts | 161° |
| 2026-04-27 23:11 | 38.22436 | -101.23644 | 36925 ft | 485 kts | 161° |
| 2026-04-27 23:12 | 38.16589 | -101.19349 | 36923 ft | 485 kts | 161° |
| 2026-04-27 23:12 | 38.11734 | -101.15803 | 36873 ft | 484 kts | 161° |
| 2026-04-27 23:13 | 38.05895 | -101.11548 | 36898 ft | 484 kts | 161° |
| 2026-04-27 23:13 | 38.00050 | -101.07279 | 36908 ft | 484 kts | 161° |
| 2026-04-27 23:14 | 37.94213 | -101.03030 | 36936 ft | 484 kts | 161° |
| 2026-04-27 23:14 | 37.88376 | -100.98796 | 36946 ft | 484 kts | 161° |
| 2026-04-27 23:15 | 37.82532 | -100.94560 | 36953 ft | 484 kts | 161° |
| 2026-04-27 23:15 | 37.76725 | -100.90363 | 36958 ft | 484 kts | 161° |
| 2026-04-27 23:16 | 37.70881 | -100.86140 | 36948 ft | 484 kts | 161° |
| 2026-04-27 23:16 | 37.65037 | -100.81912 | 36931 ft | 484 kts | 162° |
| 2026-04-27 23:17 | 37.59193 | -100.77712 | 36927 ft | 484 kts | 162° |
| 2026-04-27 23:17 | 37.53342 | -100.73513 | 36925 ft | 483 kts | 162° |
| 2026-04-27 23:18 | 37.47542 | -100.69354 | 36929 ft | 483 kts | 162° |
| 2026-04-27 23:18 | 37.41710 | -100.65177 | 36892 ft | 483 kts | 162° |
| 2026-04-27 23:19 | 37.35871 | -100.61002 | 36913 ft | 482 kts | 162° |
| 2026-04-27 23:19 | 37.30034 | -100.56838 | 36924 ft | 482 kts | 162° |
| 2026-04-27 23:20 | 37.24190 | -100.52682 | 36867 ft | 483 kts | 162° |
| 2026-04-27 23:20 | 37.18339 | -100.48545 | 36892 ft | 482 kts | 162° |
| 2026-04-27 23:21 | 37.12530 | -100.44428 | 36906 ft | 483 kts | 162° |
| 2026-04-27 23:21 | 37.06682 | -100.40262 | 36911 ft | 483 kts | 162° |
| 2026-04-27 23:22 | 37.00836 | -100.36111 | 36878 ft | 482 kts | 162° |
| 2026-04-27 23:22 | 36.94991 | -100.31991 | 36888 ft | 482 kts | 162° |
| 2026-04-27 23:23 | 36.89139 | -100.27882 | 36893 ft | 484 kts | 162° |
| 2026-04-27 23:23 | 36.83277 | -100.23766 | 36899 ft | 483 kts | 162° |
| 2026-04-27 23:24 | 36.77455 | -100.19684 | 36853 ft | 483 kts | 162° |
| 2026-04-27 23:24 | 36.71593 | -100.15575 | 36875 ft | 483 kts | 162° |
| 2026-04-27 23:25 | 36.65734 | -100.11475 | 36882 ft | 484 kts | 162° |
| 2026-04-27 23:25 | 36.59866 | -100.07375 | 36883 ft | 483 kts | 162° |
| 2026-04-27 23:26 | 36.53997 | -100.03287 | 36850 ft | 484 kts | 162° |
| 2026-04-27 23:26 | 36.48158 | -99.99230 | 36858 ft | 485 kts | 162° |
| 2026-04-27 23:27 | 36.42268 | -99.95136 | 36879 ft | 485 kts | 162° |
| 2026-04-27 23:27 | 36.36378 | -99.91048 | 36902 ft | 485 kts | 162° |
| 2026-04-27 23:28 | 36.30477 | -99.86968 | 36870 ft | 486 kts | 162° |
| 2026-04-27 23:28 | 36.24596 | -99.82905 | 36882 ft | 487 kts | 162° |
| 2026-04-27 23:29 | 36.18668 | -99.78821 | 36885 ft | 488 kts | 162° |
| 2026-04-27 23:29 | 36.12730 | -99.74737 | 36891 ft | 489 kts | 162° |
| 2026-04-27 23:30 | 36.06784 | -99.70649 | 36830 ft | 490 kts | 162° |
| 2026-04-27 23:30 | 36.00820 | -99.66564 | 36832 ft | 490 kts | 162° |
| 2026-04-27 23:31 | 35.94889 | -99.62511 | 36822 ft | 491 kts | 162° |
| 2026-04-27 23:31 | 35.88913 | -99.58421 | 36836 ft | 491 kts | 162° |
| 2026-04-27 23:32 | 35.82929 | -99.54334 | 36815 ft | 492 kts | 162° |
| 2026-04-27 23:32 | 35.77139 | -99.49661 | 36827 ft | 514 kts | 146° |
| 2026-04-27 23:33 | 35.74747 | -99.46294 | 36836 ft | 531 kts | 132° |
| 2026-04-27 23:33 | 35.72947 | -99.42270 | 36811 ft | 545 kts | 118° |
| 2026-04-27 23:33 | 35.71784 | -99.37766 | 35986 ft | 561 kts | 104° |
| 2026-04-27 23:33 | 35.71406 | -99.33008 | 34867 ft | 555 kts | 95° |
| 2026-04-27 23:34 | 35.71188 | -99.28280 | 33394 ft | 552 kts | 96° |
| 2026-04-27 23:34 | 35.70949 | -99.23588 | 31702 ft | 548 kts | 97° |
| 2026-04-27 23:34 | 35.70686 | -99.18989 | 29985 ft | 545 kts | 98° |
| 2026-04-27 23:34 | 35.70403 | -99.14346 | 27858 ft | 544 kts | 98° |
| 2026-04-27 23:35 | 35.70110 | -99.09702 | 25614 ft | 545 kts | 97° |
| 2026-04-27 23:35 | 35.69815 | -99.05038 | 23500 ft | 547 kts | 97° |
| 2026-04-27 23:35 | 35.69527 | -99.00410 | 22249 ft | 538 kts | 97° |
| 2026-04-27 23:35 | 35.69249 | -98.95857 | 21889 ft | 531 kts | 97° |
| 2026-04-27 23:36 | 35.68974 | -98.91320 | 20987 ft | 530 kts | 96° |
| 2026-04-27 23:36 | 35.68701 | -98.86822 | 20195 ft | 525 kts | 96° |
| 2026-04-27 23:36 | 35.68429 | -98.82368 | 19407 ft | 520 kts | 96° |
| 2026-04-27 23:36 | 35.68152 | -98.77963 | 18657 ft | 514 kts | 96° |
| 2026-04-27 23:37 | 35.67876 | -98.73607 | 17913 ft | 508 kts | 96° |
| 2026-04-27 23:37 | 35.67606 | -98.69362 | 17197 ft | 501 kts | 96° |
| 2026-04-27 23:37 | 35.67335 | -98.65122 | 16572 ft | 495 kts | 96° |
| 2026-04-27 23:37 | 35.67066 | -98.60932 | 15974 ft | 485 kts | 96° |
| 2026-04-27 23:38 | 35.66803 | -98.56822 | 15436 ft | 475 kts | 95° |
| 2026-04-27 23:38 | 35.66547 | -98.52803 | 14817 ft | 469 kts | 95° |
| 2026-04-27 23:38 | 35.66295 | -98.48863 | 14522 ft | 454 kts | 95° |
| 2026-04-27 23:38 | 35.66048 | -98.45074 | 14400 ft | 435 kts | 95° |
| 2026-04-27 23:39 | 35.65805 | -98.41436 | 14248 ft | 420 kts | 96° |
| 2026-04-27 23:39 | 35.65445 | -98.37946 | 14102 ft | 405 kts | 104° |
| 2026-04-27 23:39 | 35.64803 | -98.34617 | 13849 ft | 396 kts | 105° |
| 2026-04-27 23:39 | 35.64165 | -98.31390 | 13629 ft | 391 kts | 106° |
| 2026-04-27 23:40 | 35.63526 | -98.28161 | 13373 ft | 388 kts | 106° |
| 2026-04-27 23:40 | 35.62885 | -98.24957 | 13119 ft | 390 kts | 106° |
| 2026-04-27 23:40 | 35.62243 | -98.21759 | 12883 ft | 381 kts | 106° |
| 2026-04-27 23:40 | 35.61627 | -98.18635 | 12661 ft | 371 kts | 106° |
| 2026-04-27 23:41 | 35.61043 | -98.15582 | 12400 ft | 363 kts | 105° |
| 2026-04-27 23:41 | 35.60493 | -98.12593 | 12154 ft | 355 kts | 105° |
| 2026-04-27 23:41 | 35.59964 | -98.09667 | 11924 ft | 347 kts | 105° |
| 2026-04-27 23:41 | 35.59445 | -98.06822 | 11684 ft | 339 kts | 106° |
| 2026-04-27 23:42 | 35.58927 | -98.04012 | 11439 ft | 334 kts | 106° |
| 2026-04-27 23:42 | 35.58414 | -98.01245 | 11205 ft | 331 kts | 106° |
| 2026-04-27 23:42 | 35.57845 | -97.98521 | 10974 ft | 327 kts | 114° |
| 2026-04-27 23:42 | 35.57059 | -97.95966 | 10753 ft | 324 kts | 115° |
| 2026-04-27 23:43 | 35.56257 | -97.93385 | 10510 ft | 322 kts | 116° |
| 2026-04-27 23:43 | 35.55464 | -97.90821 | 10287 ft | 321 kts | 115° |
| 2026-04-27 23:43 | 35.54679 | -97.88273 | 10059 ft | 318 kts | 115° |
| 2026-04-27 23:43 | 35.53898 | -97.85738 | 9600 ft | 319 kts | 115° |
| 2026-04-27 23:44 | 35.53112 | -97.83198 | 9205 ft | 316 kts | 115° |
| 2026-04-27 23:44 | 35.52323 | -97.80659 | 8767 ft | 316 kts | 115° |
| 2026-04-27 23:44 | 35.51550 | -97.78161 | 8422 ft | 312 kts | 115° |
| 2026-04-27 23:44 | 35.50788 | -97.75708 | 8227 ft | 302 kts | 115° |
| 2026-04-27 23:45 | 35.49946 | -97.73461 | 8089 ft | 284 kts | 130° |
| 2026-04-27 23:45 | 35.48611 | -97.71830 | 7940 ft | 261 kts | 153° |
| 2026-04-27 23:45 | 35.47010 | -97.70971 | 7716 ft | 245 kts | 173° |
| 2026-04-27 23:45 | 35.45344 | -97.70798 | 7378 ft | 239 kts | 184° |
| 2026-04-27 23:46 | 35.43663 | -97.70767 | 6843 ft | 247 kts | 183° |
| 2026-04-27 23:46 | 35.41908 | -97.70738 | 6269 ft | 255 kts | 182° |
| 2026-04-27 23:46 | 35.40135 | -97.70704 | 5938 ft | 254 kts | 182° |
| 2026-04-27 23:46 | 35.38363 | -97.70689 | 5528 ft | 256 kts | 182° |
| 2026-04-27 23:47 | 35.36578 | -97.70684 | 5118 ft | 258 kts | 182° |
| 2026-04-27 23:47 | 35.34781 | -97.70687 | 4708 ft | 259 kts | 181° |
| 2026-04-27 23:47 | 35.32973 | -97.70689 | 4291 ft | 260 kts | 181° |
| 2026-04-27 23:47 | 35.31154 | -97.70686 | 3868 ft | 263 kts | 180° |
| 2026-04-27 23:48 | 35.29338 | -97.70660 | 3462 ft | 266 kts | 179° |
| 2026-04-27 23:48 | 35.27471 | -97.70622 | 3063 ft | 270 kts | 179° |
| 2026-04-27 23:48 | 35.25627 | -97.70582 | 2969 ft | 259 kts | 178° |
| 2026-04-27 23:48 | 35.23892 | -97.70538 | 2954 ft | 238 kts | 178° |
| 2026-04-27 23:49 | 35.22319 | -97.70364 | 2970 ft | 223 kts | 159° |
| 2026-04-27 23:49 | 35.21086 | -97.69379 | 3229 ft | 209 kts | 126° |
| 2026-04-27 23:49 | 35.20418 | -97.67851 | 3289 ft | 201 kts | 102° |
| 2026-04-27 23:49 | 35.20174 | -97.66169 | 3274 ft | 199 kts | 89° |
| 2026-04-27 23:50 | 35.20391 | -97.64560 | 3268 ft | 191 kts | 57° |
| 2026-04-27 23:50 | 35.21171 | -97.63449 | 3269 ft | 188 kts | 40° |
| 2026-04-27 23:50 | 35.22173 | -97.62389 | 3281 ft | 189 kts | 37° |
| 2026-04-27 23:50 | 35.23178 | -97.61364 | 3286 ft | 187 kts | 37° |
| 2026-04-27 23:51 | 35.24162 | -97.60353 | 3283 ft | 187 kts | 37° |
| 2026-04-27 23:51 | 35.25189 | -97.59374 | 3288 ft | 185 kts | 27° |
| 2026-04-27 23:51 | 35.26396 | -97.58897 | 3270 ft | 184 kts | 3° |
| 2026-04-27 23:51 | 35.27630 | -97.58881 | 3162 ft | 167 kts | 0° |
| 2026-04-27 23:52 | 35.28705 | -97.58884 | 2990 ft | 143 kts | 0° |
| 2026-04-27 23:52 | 35.29661 | -97.58886 | 2809 ft | 133 kts | 0° |
| 2026-04-27 23:52 | 35.30573 | -97.58886 | 2649 ft | 130 kts | 359° |
| 2026-04-27 23:52 | 35.31471 | -97.58887 | 2491 ft | 129 kts | 359° |
| 2026-04-27 23:53 | 35.32369 | -97.58888 | 2328 ft | 129 kts | 359° |
| 2026-04-27 23:53 | 35.33264 | -97.58889 | 2183 ft | 128 kts | 0° |
| 2026-04-27 23:53 | 35.34156 | -97.58889 | 1994 ft | 130 kts | 0° |
| 2026-04-27 23:53 | 35.35060 | -97.58886 | 1806 ft | 130 kts | 1° |
| 2026-04-27 23:54 | 35.35968 | -97.58887 | 1686 ft | 132 kts | 356° |
| 2026-04-27 23:54 | 35.36878 | -97.58895 | 1538 ft | 131 kts | 1° |
| 2026-04-27 23:54 | 35.37785 | -97.58891 | 1362 ft | 130 kts | 0° |
| 2026-04-27 23:54 | 35.38653 | -97.58892 | 1294 ft | 112 kts | 1° |
| 2026-04-27 23:55 | 35.39105 | -97.58896 | 1295 ft | 31 kts | 355° |
| 2026-04-27 23:55 | 35.39210 | -97.58959 | 1292 ft | 16 kts | 302° |
| 2026-04-27 23:55 | 35.39216 | -97.59072 | 1292 ft | 9 kts | 268° |